Taylorsville, Georgia
Current Conditions -  °F | °C
As of 12:53 AM on Sunday 23 Nov 2014 (Local Time) from KVPC Reporting Station
Overcast Overcast  
Wind Chill: 53°   Ceiling: 2200
Heat Index: 53°   Visibility: 10mi
Dew Point: 30°   Wind: 7mph
Humidity: 41%   Direction: 100°E
Pressure: 30.17"   Gusts: NA
Location:  34.09°N, 84.99°W
Report Text: KVPC 230553Z AUTO 10006KT 10SM OVC022 12/M01 A3017 RMK AO2 SLP211 T01171011 10128 20111 58018
Loading
Personal Weather Stations






























Interactive Weather Map New forecast layout! Learn more

10-Day Weather Forecast

Advertisements
Track Severe Weather on mobile